createdAt,value
2022-09-29T00:01:18.127Z,2.08
2022-09-29T00:03:46.400Z,2.33
2022-09-29T00:06:17.356Z,2.50
2022-09-29T00:08:47.618Z,2.08
2022-09-29T00:11:18.696Z,2.40
2022-09-29T00:13:48.021Z,1.52
2022-09-29T00:16:16.652Z,1.52
2022-09-29T00:18:45.343Z,2.28
2022-09-29T00:21:16.758Z,2.78
2022-09-29T00:23:47.259Z,2.10
2022-09-29T00:26:17.763Z,2.22
2022-09-29T00:28:50.500Z,3.75
2022-09-29T00:31:18.970Z,1.83
2022-09-29T00:33:47.607Z,2.90
2022-09-29T00:36:17.515Z,1.85
2022-09-29T00:38:49.328Z,2.10
2022-09-29T00:41:21.484Z,2.15
2022-09-29T00:43:56.190Z,3.30
2022-09-29T00:46:47.994Z,1.90
2022-09-29T00:49:21.571Z,2.47
2022-09-29T00:51:56.304Z,2.58
2022-09-29T00:54:30.424Z,1.70
2022-09-29T00:57:00.903Z,2.10
2022-09-29T00:59:35.467Z,2.22
2022-09-29T01:02:06.360Z,2.15
2022-09-29T01:04:34.807Z,2.78
2022-09-29T01:07:03.811Z,2.15
2022-09-29T01:09:38.494Z,1.90
2022-09-29T01:12:07.809Z,2.50
2022-09-29T01:14:39.102Z,2.05
2022-09-29T01:17:08.376Z,2.45
2022-09-29T01:19:51.214Z,2.88
2022-09-29T01:22:42.569Z,1.85
2022-09-29T01:25:34.603Z,2.83
2022-09-29T01:28:31.282Z,3.25
2022-09-29T01:31:16.766Z,4.57
2022-09-29T01:33:51.326Z,2.35
2022-09-29T01:36:31.411Z,3.40
2022-09-29T01:39:07.128Z,2.75
2022-09-29T01:41:42.748Z,2.10
2022-09-29T01:44:17.793Z,2.03
2022-09-29T01:46:52.295Z,3.53
2022-09-29T01:49:23.820Z,3.65
2022-09-29T01:51:56.191Z,3.75
2022-09-29T01:54:30.121Z,3.20
2022-09-29T01:57:04.228Z,3.85
2022-09-29T01:59:43.535Z,1.88
2022-09-29T02:02:16.862Z,2.28
2022-09-29T02:04:50.833Z,3.60
2022-09-29T02:07:27.620Z,4.20
2022-09-29T02:10:04.423Z,2.03
2022-09-29T02:12:36.607Z,1.73
2022-09-29T02:15:09.527Z,2.75
2022-09-29T02:17:42.308Z,3.70
2022-09-29T02:20:12.630Z,3.50
2022-09-29T02:22:41.340Z,2.63
2022-09-29T02:25:13.348Z,2.72
2022-09-29T02:27:42.966Z,3.10
2022-09-29T02:30:12.723Z,2.60
2022-09-29T02:32:42.487Z,2.90
2022-09-29T02:35:14.390Z,3.67
2022-09-29T02:37:54.749Z,3.10
2022-09-29T02:40:37.698Z,3.65
2022-09-29T02:43:29.471Z,3.10
2022-09-29T02:46:13.481Z,3.05
2022-09-29T02:51:27.333Z,2.65
2022-09-29T02:54:09.912Z,3.72
2022-09-29T02:56:46.615Z,2.60
2022-09-29T02:59:20.039Z,3.63
2022-09-29T03:01:51.446Z,2.90
2022-09-29T03:04:22.262Z,4.90
2022-09-29T03:06:52.319Z,3.67
2022-09-29T03:09:21.600Z,3.55
2022-09-29T03:11:49.991Z,4.45
2022-09-29T03:14:18.338Z,5.57
2022-09-29T03:16:46.675Z,3.25
2022-09-29T03:19:15.081Z,4.07
2022-09-29T03:21:45.172Z,3.50
2022-09-29T03:24:13.605Z,4.82
2022-09-29T03:26:41.939Z,6.63
2022-09-29T03:29:10.306Z,37.00
2022-09-29T03:31:41.549Z,38.17
2022-09-29T03:34:10.467Z,22.15
2022-09-29T03:36:38.875Z,29.83
2022-09-29T03:39:08.879Z,25.15
2022-09-29T03:41:37.993Z,10.38
2022-09-29T03:44:06.321Z,5.60
2022-09-29T03:46:36.383Z,4.28
2022-09-29T03:49:04.919Z,6.05
2022-09-29T03:51:33.270Z,4.28
2022-09-29T03:54:01.812Z,4.85
2022-09-29T03:56:31.517Z,5.13
2022-09-29T03:59:00.034Z,6.10
2022-09-29T04:01:28.723Z,8.38
2022-09-29T04:03:56.992Z,6.05
2022-09-29T04:06:25.918Z,7.20
2022-09-29T04:08:54.267Z,11.43
2022-09-29T04:11:22.778Z,5.30
2022-09-29T04:13:52.728Z,5.10
2022-09-29T04:16:21.076Z,4.82
2022-09-29T04:18:49.431Z,6.10
2022-09-29T04:21:18.107Z,7.35
2022-09-29T04:23:46.546Z,3.70
2022-09-29T04:26:14.993Z,4.32
2022-09-29T04:28:43.813Z,6.10
2022-09-29T04:31:13.698Z,6.20
2022-09-29T04:33:42.044Z,3.90
2022-09-29T04:36:10.677Z,5.32
2022-09-29T04:38:38.991Z,5.13
2022-09-29T04:41:07.379Z,5.68
2022-09-29T04:43:35.921Z,4.65
2022-09-29T04:46:09.043Z,4.45
2022-09-29T04:48:38.861Z,4.47
2022-09-29T04:51:08.515Z,4.68
2022-09-29T04:53:37.500Z,6.13
2022-09-29T04:56:10.182Z,5.88
2022-09-29T04:58:38.615Z,6.88
2022-09-29T05:01:11.039Z,4.80
2022-09-29T05:03:41.352Z,6.53
2022-09-29T05:06:10.289Z,5.63
2022-09-29T05:08:38.760Z,6.53
2022-09-29T05:11:07.941Z,5.13
2022-09-29T05:13:36.920Z,6.63
2022-09-29T05:16:06.286Z,5.55
2022-09-29T05:18:35.130Z,4.07
2022-09-29T05:21:27.004Z,4.50
2022-09-29T05:23:56.586Z,4.57
2022-09-29T05:26:25.043Z,5.82
2022-09-29T05:28:53.455Z,4.22
2022-09-29T05:31:22.323Z,5.10
2022-09-29T05:33:50.747Z,4.38
2022-09-29T05:36:20.637Z,3.40
2022-09-29T05:38:49.045Z,3.17
2022-09-29T05:41:22.659Z,5.95
2022-09-29T05:43:52.113Z,5.60
2022-09-29T05:46:21.318Z,5.20
2022-09-29T05:48:51.507Z,4.90
2022-09-29T05:51:23.485Z,3.58
2022-09-29T05:53:53.094Z,3.75
2022-09-29T05:56:23.633Z,4.22
2022-09-29T05:58:52.843Z,3.67
2022-09-29T06:01:23.084Z,3.75
2022-09-29T06:03:52.467Z,4.20
2022-09-29T06:06:24.227Z,4.90
2022-09-29T06:08:53.026Z,4.20
2022-09-29T06:11:23.127Z,4.50
2022-09-29T06:13:53.989Z,4.50
2022-09-29T06:16:24.775Z,5.88
2022-09-29T06:18:53.372Z,5.18
2022-09-29T06:21:25.153Z,6.18
2022-09-29T06:23:55.338Z,4.22
2022-09-29T06:26:25.151Z,4.47
2022-09-29T06:28:54.099Z,3.58
2022-09-29T06:31:24.731Z,4.30
2022-09-29T06:33:53.703Z,3.47
2022-09-29T06:36:43.376Z,4.78
2022-09-29T06:39:14.424Z,3.40
2022-09-29T06:41:44.631Z,4.13
2022-09-29T06:44:12.985Z,4.35
2022-09-29T06:46:41.307Z,5.00
2022-09-29T06:49:09.711Z,4.03
2022-09-29T06:51:45.644Z,4.57
2022-09-29T06:54:15.523Z,5.28
2022-09-29T06:56:44.502Z,4.47
2022-09-29T06:59:13.056Z,4.30
2022-09-29T07:01:42.020Z,3.78
2022-09-29T07:04:10.638Z,6.15
2022-09-29T07:06:40.595Z,5.95
2022-09-29T07:09:15.846Z,4.07
2022-09-29T07:11:47.021Z,6.43
2022-09-29T07:14:15.673Z,4.43
2022-09-29T07:16:44.671Z,3.60
2022-09-29T07:19:13.711Z,4.30
2022-09-29T07:21:43.701Z,5.10
2022-09-29T07:24:12.226Z,3.83
2022-09-29T07:26:40.771Z,4.90
2022-09-29T07:29:15.059Z,4.97
2022-09-29T07:31:51.381Z,5.43
2022-09-29T07:34:20.889Z,4.78
2022-09-29T07:36:51.398Z,4.97
2022-09-29T07:39:22.788Z,4.28
2022-09-29T07:41:52.239Z,4.63
2022-09-29T07:44:20.834Z,5.07
2022-09-29T07:46:50.303Z,7.85
2022-09-29T07:49:18.709Z,5.32
2022-09-29T07:51:47.101Z,5.57
2022-09-29T07:54:17.130Z,5.65
2022-09-29T07:56:45.538Z,8.32
2022-09-29T07:59:14.662Z,4.15
2022-09-29T08:01:43.099Z,7.32
2022-09-29T08:04:11.854Z,8.70
2022-09-29T08:06:42.300Z,6.47
2022-09-29T08:09:11.045Z,4.38
2022-09-29T08:11:42.389Z,4.20
2022-09-29T08:14:11.687Z,6.63
2022-09-29T08:16:40.176Z,7.00
2022-09-29T08:19:08.691Z,7.07
2022-09-29T08:21:38.443Z,6.40
2022-09-29T08:24:08.310Z,5.13
2022-09-29T08:26:43.761Z,5.65
2022-09-29T08:29:17.310Z,6.28
2022-09-29T08:31:47.549Z,5.65
2022-09-29T08:34:16.748Z,9.70
2022-09-29T08:36:45.104Z,6.45
2022-09-29T08:39:15.661Z,5.15
2022-09-29T08:41:56.852Z,5.65
2022-09-29T08:44:38.854Z,6.65
2022-09-29T08:47:18.209Z,4.32
2022-09-29T08:49:51.216Z,4.75
2022-09-29T08:52:24.467Z,8.15
2022-09-29T08:55:00.583Z,6.20
2022-09-29T08:57:32.185Z,4.00
2022-09-29T09:00:02.203Z,5.50
2022-09-29T09:03:05.265Z,4.60
2022-09-29T09:05:55.311Z,6.18
2022-09-29T09:08:43.647Z,4.35
2022-09-29T09:11:31.095Z,5.72
2022-09-29T09:14:10.318Z,6.15
2022-09-29T09:16:50.943Z,4.30
2022-09-29T09:19:57.185Z,5.43
2022-09-29T09:22:27.331Z,5.90
2022-09-29T09:24:59.682Z,5.05
2022-09-29T09:27:30.435Z,3.83
2022-09-29T09:30:07.258Z,6.07
2022-09-29T09:32:44.822Z,4.20
2022-09-29T09:35:31.874Z,4.00
2022-09-29T09:38:04.460Z,4.25
2022-09-29T09:40:41.291Z,6.22
2022-09-29T09:43:15.754Z,3.70
2022-09-29T09:45:50.163Z,6.60
2022-09-29T09:48:31.514Z,5.03
2022-09-29T09:51:03.302Z,6.10
2022-09-29T09:53:38.518Z,6.53
2022-09-29T09:56:21.133Z,6.03
2022-09-29T09:59:19.204Z,3.97
2022-09-29T10:01:47.714Z,4.13
2022-09-29T10:04:17.933Z,4.20
2022-09-29T10:06:46.756Z,7.22
2022-09-29T10:09:17.569Z,4.95
2022-09-29T10:11:47.159Z,6.30
2022-09-29T10:14:21.244Z,4.78
2022-09-29T10:16:54.155Z,6.10
2022-09-29T10:19:26.574Z,4.65
2022-09-29T10:21:55.088Z,8.13
2022-09-29T10:24:25.603Z,5.05
2022-09-29T10:26:57.822Z,5.75
2022-09-29T10:29:33.146Z,4.95
2022-09-29T10:32:06.706Z,4.82
2022-09-29T10:34:39.794Z,5.55
2022-09-29T10:37:23.829Z,4.90
2022-09-29T10:42:25.999Z,4.50
2022-09-29T10:47:25.207Z,4.28
2022-09-29T10:50:16.160Z,4.50
2022-09-29T10:52:47.066Z,6.05
2022-09-29T10:55:21.398Z,4.65
2022-09-29T10:57:50.924Z,5.53
2022-09-29T11:00:35.785Z,3.00
2022-09-29T11:03:09.138Z,4.68
2022-09-29T11:05:40.396Z,3.38
2022-09-29T11:08:15.280Z,3.72
2022-09-29T11:10:44.608Z,3.72
2022-09-29T11:13:36.476Z,3.13
2022-09-29T11:16:08.245Z,3.45
2022-09-29T11:18:39.886Z,4.78
2022-09-29T11:21:33.308Z,6.20
2022-09-29T11:24:08.451Z,3.95
2022-09-29T11:26:43.902Z,4.35
2022-09-29T11:29:25.422Z,7.63
2022-09-29T11:32:11.456Z,6.43
2022-09-29T11:35:02.820Z,3.90
2022-09-29T11:37:47.780Z,3.88
2022-09-29T11:40:26.002Z,4.60
2022-09-29T11:43:07.962Z,3.08
2022-09-29T11:45:43.426Z,3.95
2022-09-29T11:48:47.287Z,3.65
2022-09-29T11:51:25.199Z,4.03
2022-09-29T11:54:10.960Z,3.92
2022-09-29T11:56:46.975Z,6.13
2022-09-29T11:59:36.464Z,4.70
2022-09-29T12:02:38.578Z,4.00
2022-09-29T12:05:18.218Z,3.28
2022-09-29T12:08:02.199Z,4.18
2022-09-29T12:13:24.382Z,4.13
2022-09-29T12:15:57.637Z,3.55
2022-09-29T12:18:32.451Z,3.03
2022-09-29T12:21:03.001Z,6.03
2022-09-29T12:23:38.044Z,5.07
2022-09-29T12:26:11.502Z,5.32
2022-09-29T12:28:47.293Z,6.07
2022-09-29T12:31:21.030Z,4.38
2022-09-29T12:36:50.587Z,4.90
2022-09-29T12:39:38.871Z,2.97
2022-09-29T12:42:24.451Z,4.18
2022-09-29T12:44:59.306Z,5.38
2022-09-29T12:47:40.230Z,2.33
2022-09-29T12:50:16.956Z,4.07
2022-09-29T12:52:50.133Z,4.22
2022-09-29T12:55:25.558Z,3.05
2022-09-29T12:57:58.453Z,4.93
2022-09-29T13:00:27.226Z,3.92
2022-09-29T13:03:34.076Z,4.05
2022-09-29T13:06:27.285Z,4.18
2022-09-29T13:09:18.673Z,3.53
2022-09-29T13:12:12.675Z,3.65
2022-09-29T13:15:09.603Z,3.67
2022-09-29T13:17:55.548Z,3.20
2022-09-29T13:20:52.255Z,4.10
2022-09-29T13:24:08.168Z,2.78
2022-09-29T13:26:58.361Z,4.15
2022-09-29T13:29:28.793Z,3.78
2022-09-29T13:31:59.645Z,4.05
2022-09-29T13:34:32.455Z,2.75
2022-09-29T13:37:09.838Z,4.03
2022-09-29T13:39:38.194Z,5.55
2022-09-29T13:42:28.199Z,4.15
2022-09-29T13:45:16.931Z,3.67
2022-09-29T13:47:52.571Z,3.42
2022-09-29T13:50:43.735Z,3.20
2022-09-29T13:53:37.703Z,3.58
2022-09-29T13:56:18.713Z,3.65
2022-09-29T13:59:01.495Z,1.77
2022-09-29T14:01:36.362Z,4.57
2022-09-29T14:04:38.002Z,3.92
2022-09-29T14:07:08.732Z,1.85
2022-09-29T14:09:41.900Z,2.80
2022-09-29T14:12:19.423Z,4.97
2022-09-29T14:14:55.229Z,1.98
2022-09-29T14:17:28.215Z,3.38
2022-09-29T14:20:10.143Z,2.17
2022-09-29T14:23:00.362Z,2.47
2022-09-29T14:25:55.506Z,5.78
2022-09-29T14:28:44.102Z,4.30
2022-09-29T14:31:24.778Z,1.75
2022-09-29T14:33:54.591Z,2.38
2022-09-29T14:36:28.382Z,5.72
2022-09-29T14:39:24.485Z,1.90
2022-09-29T14:41:49.386Z,2.60
2022-09-29T14:44:21.826Z,2.17
2022-09-29T14:47:22.519Z,2.80
2022-09-29T14:50:38.511Z,3.30
2022-09-29T14:53:21.189Z,3.92
2022-09-29T14:56:02.466Z,1.92
2022-09-29T14:58:59.378Z,3.60
2022-09-29T15:01:29.720Z,2.22
2022-09-29T15:03:59.886Z,2.85
2022-09-29T15:06:29.791Z,4.60
2022-09-29T15:09:01.822Z,4.95
2022-09-29T15:11:34.156Z,3.40
2022-09-29T15:14:02.593Z,2.45
2022-09-29T15:16:46.165Z,3.50
2022-09-29T15:19:31.494Z,4.55
2022-09-29T15:22:15.774Z,3.20
2022-09-29T15:25:09.658Z,1.52
2022-09-29T15:27:41.186Z,2.47
2022-09-29T15:30:17.558Z,4.10
2022-09-29T15:32:48.467Z,3.13
2022-09-29T15:35:21.731Z,2.95
2022-09-29T15:38:19.643Z,2.95
2022-09-29T15:40:55.792Z,4.03
2022-09-29T15:43:28.350Z,2.15
2022-09-29T15:46:01.941Z,5.63
2022-09-29T15:48:31.531Z,2.97
2022-09-29T15:51:02.119Z,4.00
2022-09-29T15:53:31.275Z,5.95
2022-09-29T15:56:01.152Z,5.10
2022-09-29T15:58:45.566Z,4.82
2022-09-29T16:01:17.747Z,2.30
2022-09-29T16:03:50.958Z,3.95
2022-09-29T16:06:24.835Z,5.47
2022-09-29T16:08:57.021Z,3.65
2022-09-29T16:11:31.573Z,4.40
2022-09-29T16:14:03.400Z,4.10
2022-09-29T16:16:38.191Z,4.25
2022-09-29T16:19:18.767Z,3.45
2022-09-29T16:21:53.727Z,4.05
2022-09-29T16:24:22.863Z,3.70
2022-09-29T16:26:54.261Z,6.20
2022-09-29T16:29:30.306Z,4.50
2022-09-29T16:32:00.083Z,5.30
2022-09-29T16:34:32.602Z,4.97
2022-09-29T16:37:04.138Z,6.53
2022-09-29T16:39:35.223Z,6.20
2022-09-29T16:42:07.332Z,7.93
2022-09-29T16:44:39.683Z,5.65
2022-09-29T16:47:16.624Z,4.88
2022-09-29T16:49:52.262Z,8.43
2022-09-29T16:52:26.631Z,12.77
2022-09-29T16:54:56.914Z,15.43
2022-09-29T16:57:30.412Z,24.25
2022-09-29T17:00:00.497Z,10.82
2022-09-29T17:02:30.471Z,12.10
2022-09-29T17:05:01.557Z,53.17
2022-09-29T17:07:30.674Z,23.88
2022-09-29T17:10:01.469Z,13.30
2022-09-29T17:12:33.704Z,7.35
2022-09-29T17:15:02.098Z,10.30
2022-09-29T17:17:31.550Z,9.02
2022-09-29T17:20:00.731Z,7.38
2022-09-29T17:22:32.347Z,11.15
2022-09-29T17:25:01.815Z,9.25
2022-09-29T17:27:49.518Z,5.03
2022-09-29T17:30:22.926Z,5.40
2022-09-29T17:32:54.853Z,5.25
2022-09-29T17:35:30.853Z,5.70
2022-09-29T17:37:59.936Z,5.80
2022-09-29T17:40:35.151Z,4.50
2022-09-29T17:43:05.350Z,4.40
2022-09-29T17:45:35.519Z,6.00
2022-09-29T17:48:05.105Z,5.20
2022-09-29T17:50:36.935Z,5.05
2022-09-29T17:53:05.732Z,4.53
2022-09-29T17:55:35.035Z,3.38
2022-09-29T17:58:05.754Z,4.13
2022-09-29T18:00:38.566Z,8.48
2022-09-29T18:03:09.677Z,7.40
2022-09-29T18:05:39.540Z,8.13
2022-09-29T18:08:12.009Z,8.20
2022-09-29T18:10:45.547Z,6.28
2022-09-29T18:13:17.151Z,8.10
2022-09-29T18:15:47.621Z,7.95
2022-09-29T18:18:18.673Z,5.68
2022-09-29T18:20:48.571Z,6.85
2022-09-29T18:23:18.252Z,7.70
2022-09-29T18:25:50.305Z,6.55
2022-09-29T18:28:20.506Z,7.22
2022-09-29T18:30:52.521Z,8.95
2022-09-29T18:33:22.095Z,6.88
2022-09-29T18:35:55.800Z,6.50
2022-09-29T18:40:55.544Z,8.32
2022-09-29T18:43:27.695Z,5.97
2022-09-29T18:45:57.986Z,6.60
2022-09-29T18:48:29.738Z,7.90
2022-09-29T18:50:58.947Z,8.00
2022-09-29T18:53:28.445Z,6.85
2022-09-29T18:56:01.021Z,6.18
2022-09-29T18:58:32.387Z,7.82
2022-09-29T19:01:02.782Z,6.63
2022-09-29T19:03:33.069Z,7.13
2022-09-29T19:06:03.452Z,21.00
2022-09-29T19:08:33.790Z,5.90
2022-09-29T19:11:04.948Z,7.80
2022-09-29T19:13:35.949Z,6.97
2022-09-29T19:16:05.764Z,10.18
2022-09-29T19:18:35.253Z,7.07
2022-09-29T19:21:12.154Z,5.55
2022-09-29T19:23:43.942Z,7.18
2022-09-29T19:26:14.592Z,5.28
2022-09-29T19:28:46.679Z,8.88
2022-09-29T19:31:17.601Z,6.22
2022-09-29T19:33:47.044Z,5.85
2022-09-29T19:36:18.807Z,7.13
2022-09-29T19:38:48.418Z,8.70
2022-09-29T19:41:20.973Z,7.28
2022-09-29T19:43:52.315Z,7.75
2022-09-29T19:46:23.097Z,9.13
2022-09-29T19:48:51.533Z,9.07
2022-09-29T19:51:52.469Z,10.68
2022-09-29T19:54:25.284Z,6.90
2022-09-29T19:56:56.322Z,6.43
2022-09-29T19:59:29.686Z,5.70
2022-09-29T20:01:59.218Z,7.68
2022-09-29T20:04:31.483Z,5.45
2022-09-29T20:07:03.320Z,6.10
2022-09-29T20:09:32.883Z,6.72
2022-09-29T20:12:02.191Z,9.85
2022-09-29T20:14:38.416Z,15.88
2022-09-29T20:17:08.171Z,16.77
2022-09-29T20:19:37.723Z,12.70
2022-09-29T20:22:09.850Z,9.02
2022-09-29T20:24:38.913Z,7.90
2022-09-29T20:27:07.710Z,17.95
2022-09-29T20:29:38.933Z,11.10
2022-09-29T20:32:08.792Z,7.50
2022-09-29T20:34:37.121Z,23.35
2022-09-29T20:37:05.527Z,15.07
2022-09-29T20:39:33.922Z,11.52
2022-09-29T20:42:03.491Z,6.97
2022-09-29T20:44:31.817Z,13.95
2022-09-29T20:47:01.794Z,8.30
2022-09-29T20:49:30.183Z,10.15
2022-09-29T20:51:59.454Z,12.43
2022-09-29T20:54:28.026Z,12.38
2022-09-29T20:56:56.607Z,12.80
2022-09-29T20:59:25.995Z,12.63
2022-09-29T21:01:55.819Z,11.00
2022-09-29T21:04:25.599Z,11.38
2022-09-29T21:06:54.459Z,11.25
2022-09-29T21:09:26.577Z,11.85
2022-09-29T21:11:55.641Z,10.63
2022-09-29T21:14:27.890Z,11.93
2022-09-29T21:16:58.866Z,10.57
2022-09-29T21:19:28.967Z,12.32
2022-09-29T21:21:57.818Z,10.15
2022-09-29T21:24:26.380Z,10.35
2022-09-29T21:26:54.715Z,10.77
2022-09-29T21:29:23.527Z,11.43
2022-09-29T21:31:51.963Z,10.55
2022-09-29T21:34:21.302Z,10.23
2022-09-29T21:36:51.208Z,10.15
2022-09-29T21:39:20.134Z,10.45
2022-09-29T21:41:48.878Z,10.65
2022-09-29T21:44:19.063Z,10.77
2022-09-29T21:46:47.964Z,10.18
2022-09-29T21:49:18.223Z,11.82
2022-09-29T21:51:48.561Z,9.30
2022-09-29T21:54:20.716Z,10.35
2022-09-29T21:56:50.514Z,10.18
2022-09-29T21:59:21.747Z,11.95
2022-09-29T22:01:50.874Z,9.20
2022-09-29T22:04:19.698Z,10.85
2022-09-29T22:06:48.118Z,5.53
2022-09-29T22:09:21.294Z,7.10
2022-09-29T22:11:50.675Z,5.35
2022-09-29T22:14:20.146Z,4.20
2022-09-29T22:16:48.755Z,4.75
2022-09-29T22:19:25.099Z,13.43
2022-09-29T22:21:54.326Z,21.55
2022-09-29T22:24:26.729Z,11.68
2022-09-29T22:26:55.193Z,6.88
2022-09-29T22:29:23.684Z,6.18
2022-09-29T22:31:52.637Z,6.25
2022-09-29T22:34:21.250Z,6.65
2022-09-29T22:36:50.087Z,5.75
2022-09-29T22:39:18.813Z,3.85
2022-09-29T22:41:48.833Z,4.82
2022-09-29T22:44:18.605Z,3.80
2022-09-29T22:46:47.047Z,5.40
2022-09-29T22:49:15.466Z,3.72
2022-09-29T22:51:43.875Z,3.05
2022-09-29T22:54:14.405Z,3.35
2022-09-29T22:56:43.869Z,4.35
2022-09-29T22:59:14.471Z,5.70
2022-09-29T23:01:43.186Z,7.05
2022-09-29T23:04:11.611Z,8.50
2022-09-29T23:06:40.025Z,11.07
2022-09-29T23:09:08.464Z,5.45
2022-09-29T23:11:36.846Z,5.75
2022-09-29T23:14:05.193Z,5.40
2022-09-29T23:16:35.054Z,6.72
2022-09-29T23:19:03.507Z,6.10
2022-09-29T23:21:32.477Z,4.68
2022-09-29T23:24:02.563Z,4.10
2022-09-29T23:26:32.417Z,5.22
2022-09-29T23:29:01.743Z,6.05
2022-09-29T23:31:30.119Z,6.50
2022-09-29T23:34:01.296Z,5.60
2022-09-29T23:36:32.072Z,7.07
2022-09-29T23:39:14.334Z,5.07
2022-09-29T23:41:44.996Z,4.57
2022-09-29T23:44:15.570Z,5.07
2022-09-29T23:46:45.107Z,5.63
2022-09-29T23:49:17.199Z,8.57
2022-09-29T23:51:48.271Z,4.93
2022-09-29T23:54:18.369Z,5.15
2022-09-29T23:56:47.363Z,5.88
2022-09-29T23:59:15.763Z,5.32
